Terminal Aerodrome Forecast
Issued by NWS

Home | Current Version | Previous Version | Text Only | Print | Product List | Glossary On
Versions: 1 2 3 4 5 6 7 8 9 10 11 12 13 14
537
FTUS44 KTSA 241120
TAFXNA
TAF
KXNA 241120Z 2412/2512 14007KT P6SM SCT250
     FM241500 18015G23KT P6SM SCT250
     FM241700 18019G28KT P6SM FEW250
     FM250100 20012G18KT P6SM FEW250
     FM250600 24008KT P6SM SCT250=

USA.gov is the U.S. government's official web portal to all federal, state and local government web resources and services.